Time;durP1;ratioP1;P1;durP2;ratioP2;P2;SDS_P1;SDS_P2;PMS_P1;PMS_P2;Temp;Humidity;BMP_temperature;BMP_pressure;BME280_temperature;BME280_humidity;BME280_pressure;Samples;Min_cycle;Max_cycle;Signal;HPM_P1;HPM_P2
2022/08/24 00:00:16;;;;;;;7.17;4.60;;;28.20;99.90;;;;;;1954466;72;21130;-81
2022/08/24 00:02:50;;;;;;;9.33;4.95;;;28.20;99.90;;;;;;1968062;72;21119;-81
2022/08/24 00:05:22;;;;;;;9.85;5.85;;;28.20;99.90;;;;;;1965402;72;21088;-81
2022/08/24 00:07:54;;;;;;;6.10;4.85;;;28.20;99.90;;;;;;1973322;72;21181;-81
2022/08/24 00:10:25;;;;;;;9.63;5.22;;;28.30;99.90;;;;;;1977335;72;21151;-81
2022/08/24 00:13:00;;;;;;;8.30;4.90;;;28.30;99.90;;;;;;1971626;72;21068;-81
2022/08/24 00:15:32;;;;;;;9.95;4.92;;;28.30;99.90;;;;;;1978952;72;21115;-81
2022/08/24 00:18:06;;;;;;;7.40;4.92;;;28.30;99.90;;;;;;1965770;72;21123;-80
2022/08/24 00:20:38;;;;;;;9.98;4.92;;;28.30;99.90;;;;;;1960984;72;21547;-81
2022/08/24 00:23:11;;;;;;;6.95;4.80;;;28.30;99.90;;;;;;1957577;71;21120;-81
2022/08/24 00:25:46;;;;;;;9.48;5.40;;;28.40;99.90;;;;;;1976260;72;21162;-81
2022/08/24 00:28:17;;;;;;;10.50;5.28;;;28.40;99.90;;;;;;1974697;72;21119;-81
2022/08/24 00:30:49;;;;;;;10.82;4.90;;;28.40;99.90;;;;;;1972396;72;21169;-81
2022/08/24 00:33:20;;;;;;;7.97;4.90;;;28.50;99.90;;;;;;1965198;72;21658;-81
2022/08/24 00:35:51;;;;;;;7.67;4.75;;;28.50;99.90;;;;;;1972570;72;21122;-80
2022/08/24 00:38:22;;;;;;;6.85;4.40;;;28.50;99.90;;;;;;1973407;72;21091;-81
2022/08/24 00:40:57;;;;;;;10.78;5.60;;;28.60;99.90;;;;;;1971921;72;21111;-80
2022/08/24 00:43:29;;;;;;;8.70;5.30;;;28.60;99.90;;;;;;1980785;72;21232;-80
2022/08/24 00:46:03;;;;;;;9.03;5.37;;;28.60;99.90;;;;;;1934869;73;21160;-81
2022/08/24 00:48:36;;;;;;;9.15;4.97;;;28.60;99.90;;;;;;1962421;72;21068;-81
2022/08/24 00:51:11;;;;;;;10.68;5.75;;;28.60;99.90;;;;;;1979106;72;21076;-81
2022/08/24 00:53:45;;;;;;;8.65;5.75;;;28.70;99.90;;;;;;1973101;72;21126;-81
2022/08/24 00:56:18;;;;;;;7.87;5.03;;;28.80;99.90;;;;;;1982391;72;21076;-81
2022/08/24 00:58:51;;;;;;;7.37;5.22;;;28.80;99.90;;;;;;1977338;72;21610;-80
2022/08/24 01:01:24;;;;;;;9.75;5.58;;;28.80;99.90;;;;;;1971631;72;21641;-81
2022/08/24 01:03:57;;;;;;;9.70;5.60;;;28.90;99.90;;;;;;1976031;72;21128;-81
2022/08/24 01:06:28;;;;;;;9.23;5.37;;;28.90;99.90;;;;;;1974751;72;21123;-80
2022/08/24 01:09:00;;;;;;;8.60;4.65;;;28.90;99.90;;;;;;1962319;72;21713;-81
2022/08/24 01:11:32;;;;;;;9.58;4.87;;;28.90;99.90;;;;;;1984848;72;21508;-81
2022/08/24 01:14:05;;;;;;;10.63;5.15;;;29.00;99.90;;;;;;1963953;72;21122;-80
2022/08/24 01:19:14;;;;;;;8.30;4.47;;;29.00;99.90;;;;;;1989744;72;21175;-80
2022/08/24 01:21:48;;;;;;;10.53;4.87;;;29.10;99.90;;;;;;1960367;72;21428;-82
2022/08/24 01:24:22;;;;;;;9.48;4.72;;;29.20;99.90;;;;;;1972500;72;21096;-80
2022/08/24 01:26:53;;;;;;;7.08;4.67;;;29.20;99.90;;;;;;1964665;72;21643;-81
2022/08/24 01:29:26;;;;;;;7.35;5.20;;;29.20;99.90;;;;;;1968145;72;21123;-80
2022/08/24 01:32:04;;;;;;;13.30;5.42;;;29.30;99.90;;;;;;1975776;72;21115;-81
2022/08/24 01:34:31;;;;;;;9.23;4.67;;;29.30;99.90;;;;;;1969062;72;21071;-81
2022/08/24 01:37:03;;;;;;;5.95;4.45;;;29.40;99.90;;;;;;1893925;75;21185;-81
2022/08/24 01:39:37;;;;;;;7.62;4.80;;;29.40;99.90;;;;;;1949047;72;21245;-82
2022/08/24 01:42:09;;;;;;;8.43;5.47;;;29.50;99.90;;;;;;1947884;73;21131;-80
2022/08/24 01:44:42;;;;;;;8.45;4.60;;;29.60;99.90;;;;;;1950929;73;21168;-81
2022/08/24 01:47:16;;;;;;;8.73;4.65;;;29.60;99.90;;;;;;1945836;73;21233;-81
2022/08/24 01:49:55;;;;;;;9.65;5.20;;;29.60;99.90;;;;;;1939958;73;21174;-82
2022/08/24 01:52:24;;;;;;;11.68;4.50;;;29.70;99.90;;;;;;1950979;73;21101;-82
2022/08/24 01:54:57;;;;;;;7.58;4.60;;;29.70;99.90;;;;;;1953289;71;21166;-81
2022/08/24 01:57:31;;;;;;;9.13;5.00;;;29.80;99.90;;;;;;1932727;72;21100;-81
2022/08/24 02:00:01;;;;;;;7.65;5.22;;;29.80;99.90;;;;;;1972606;71;21065;-82
2022/08/24 02:02:34;;;;;;;7.67;4.20;;;29.80;99.90;;;;;;1950490;71;21108;-82
2022/08/24 02:05:09;;;;;;;10.15;6.00;;;29.80;99.90;;;;;;1952506;71;21132;-80
2022/08/24 02:07:41;;;;;;;8.08;4.70;;;29.80;99.90;;;;;;1944284;71;21240;-81
2022/08/24 02:10:14;;;;;;;8.73;4.47;;;29.90;99.90;;;;;;1968039;71;21179;-80
2022/08/24 02:12:56;;;;;;;10.50;4.22;;;29.90;99.90;;;;;;1952794;72;21178;-81
2022/08/24 02:15:26;;;;;;;8.88;4.25;;;30.00;99.90;;;;;;1964895;71;21690;-80
2022/08/24 02:17:53;;;;;;;8.63;4.53;;;30.10;99.90;;;;;;1971858;71;21120;-81
2022/08/24 02:20:24;;;;;;;8.13;4.20;;;30.20;99.70;;;;;;1969734;71;21205;-83
2022/08/24 02:22:55;;;;;;;7.87;4.70;;;30.20;99.60;;;;;;1952045;71;21064;-83
2022/08/24 02:25:29;;;;;;;9.00;4.92;;;30.30;99.30;;;;;;1937191;73;21139;-81
2022/08/24 02:28:00;;;;;;;10.75;4.70;;;30.30;99.10;;;;;;1943745;71;21140;-82
2022/08/24 02:30:32;;;;;;;6.67;4.22;;;30.30;99.00;;;;;;1926393;72;21551;-82
2022/08/24 02:33:03;;;;;;;7.28;4.15;;;30.30;98.70;;;;;;1926535;72;21080;-80
2022/08/24 02:35:34;;;;;;;6.58;4.37;;;30.40;98.90;;;;;;1982465;70;21141;-81
2022/08/24 02:38:05;;;;;;;9.28;4.53;;;30.50;98.70;;;;;;1987764;71;21107;-81
2022/08/24 02:40:37;;;;;;;6.80;4.10;;;30.60;98.60;;;;;;1989498;71;21171;-83
2022/08/24 02:43:08;;;;;;;7.65;4.03;;;30.60;98.40;;;;;;1986781;71;21151;-82
2022/08/24 02:45:41;;;;;;;9.75;4.80;;;30.60;98.20;;;;;;1978762;71;21212;-82
2022/08/24 02:48:14;;;;;;;11.28;4.45;;;30.70;98.00;;;;;;1982228;71;21134;-82
2022/08/24 02:50:47;;;;;;;8.85;4.03;;;30.70;97.40;;;;;;1990635;71;21123;-80
2022/08/24 02:53:21;;;;;;;12.40;4.45;;;30.60;97.30;;;;;;1985645;71;21112;-82
2022/08/24 02:55:52;;;;;;;8.33;4.25;;;30.60;97.00;;;;;;1965357;71;21128;-81
2022/08/24 02:58:23;;;;;;;9.05;3.72;;;30.60;97.00;;;;;;1959221;71;21100;-81
2022/08/24 03:00:54;;;;;;;5.58;3.20;;;30.60;96.40;;;;;;1939890;73;21128;-81
2022/08/24 03:03:25;;;;;;;6.72;3.10;;;30.60;96.50;;;;;;1962461;71;21164;-81
2022/08/24 03:05:56;;;;;;;9.33;3.50;;;30.50;96.40;;;;;;1957354;71;22170;-82
2022/08/24 03:08:27;;;;;;;8.05;3.33;;;30.50;96.20;;;;;;1944728;71;21564;-81
2022/08/24 03:10:59;;;;;;;4.55;3.27;;;30.50;96.30;;;;;;1960507;71;21180;-82
2022/08/24 03:13:30;;;;;;;5.67;3.50;;;30.50;95.90;;;;;;1965622;71;21140;-81
2022/08/24 03:16:02;;;;;;;6.97;3.90;;;30.50;96.20;;;;;;1956137;71;21131;-81
2022/08/24 03:18:37;;;;;;;12.53;3.80;;;30.50;96.30;;;;;;1925457;74;21564;-80
2022/08/24 03:21:09;;;;;;;9.38;3.90;;;30.50;96.50;;;;;;1928142;74;21561;-81
2022/08/24 03:23:40;;;;;;;8.68;3.55;;;30.60;96.90;;;;;;1946543;73;21582;-81
2022/08/24 03:26:12;;;;;;;11.55;4.25;;;30.60;97.00;;;;;;1932088;72;21128;-82
2022/08/24 03:28:43;;;;;;;12.53;3.52;;;30.60;96.90;;;;;;1910408;75;21169;-81
2022/08/24 03:31:13;;;;;;;6.72;3.45;;;30.60;96.80;;;;;;1891168;76;21213;-82
2022/08/24 03:33:54;;;;;;;5.97;3.10;;;30.60;96.30;;;;;;1904583;74;22192;-83
2022/08/24 03:36:23;;;;;;;6.25;3.10;;;30.60;96.30;;;;;;1920224;74;21022;-82
2022/08/24 03:38:54;;;;;;;10.58;2.92;;;30.70;96.20;;;;;;1933557;74;21102;-82
2022/08/24 03:41:26;;;;;;;4.72;2.60;;;30.70;95.80;;;;;;1922189;74;21141;-82
2022/08/24 03:43:57;;;;;;;7.12;3.30;;;30.80;95.70;;;;;;1943863;74;21037;-80
2022/08/24 03:46:31;;;;;;;4.72;3.00;;;30.70;95.90;;;;;;1896210;73;21630;-81
2022/08/24 03:49:03;;;;;;;7.08;2.87;;;30.70;95.90;;;;;;1899759;75;21135;-80
2022/08/24 03:51:35;;;;;;;6.80;2.47;;;30.70;95.40;;;;;;1914480;75;21144;-81
2022/08/24 03:54:09;;;;;;;6.22;3.00;;;30.60;96.00;;;;;;1963623;72;21713;-81
2022/08/24 03:56:59;;;;;;;8.38;3.52;;;30.70;96.50;;;;;;1968947;72;21161;-80
2022/08/24 03:59:31;;;;;;;5.40;3.15;;;30.70;96.30;;;;;;1942624;73;21811;-81
2022/08/24 04:02:03;;;;;;;10.90;3.08;;;30.80;96.40;;;;;;1948981;73;21253;-80
2022/08/24 04:04:36;;;;;;;8.65;3.10;;;30.80;95.90;;;;;;1951426;73;21307;-81
2022/08/24 04:07:06;;;;;;;9.68;3.25;;;30.80;95.80;;;;;;1947320;73;21102;-81
2022/08/24 04:09:37;;;;;;;5.90;2.67;;;30.80;95.90;;;;;;1947283;71;21647;-80
2022/08/24 04:12:08;;;;;;;7.17;3.08;;;30.90;96.00;;;;;;1965236;71;21231;-81
2022/08/24 04:14:39;;;;;;;6.12;2.80;;;30.90;95.80;;;;;;1950392;71;21236;-81
2022/08/24 04:17:11;;;;;;;5.70;2.65;;;30.90;96.00;;;;;;1944674;73;21219;-80
2022/08/24 04:19:56;;;;;;;5.55;2.95;;;30.90;96.10;;;;;;1955759;73;21538;-81
2022/08/24 04:22:17;;;;;;;7.20;3.10;;;31.00;96.30;;;;;;1966353;73;21087;-81
2022/08/24 04:24:49;;;;;;;6.30;3.20;;;31.00;96.20;;;;;;1953620;71;21664;-81
2022/08/24 04:27:20;;;;;;;6.80;3.37;;;31.10;96.20;;;;;;1901525;74;21129;-80
2022/08/24 04:29:52;;;;;;;8.38;3.10;;;31.10;96.30;;;;;;1908947;74;21126;-82
2022/08/24 04:32:24;;;;;;;7.67;3.10;;;31.10;96.20;;;;;;1887504;75;21197;-80
2022/08/24 04:34:56;;;;;;;10.43;3.27;;;31.10;96.40;;;;;;1883391;76;21075;-81
2022/08/24 04:37:27;;;;;;;8.55;3.02;;;31.10;96.60;;;;;;1874930;75;21088;-80
2022/08/24 04:39:59;;;;;;;7.45;3.47;;;31.10;96.70;;;;;;1894266;76;21095;-81
2022/08/24 04:42:31;;;;;;;6.22;3.33;;;31.10;96.40;;;;;;1894221;76;21613;-83
2022/08/24 04:45:03;;;;;;;9.78;3.85;;;31.00;96.30;;;;;;1895517;75;21245;-82
2022/08/24 04:47:34;;;;;;;4.50;2.92;;;31.00;96.50;;;;;;1892984;74;21091;-80
2022/08/24 04:50:05;;;;;;;7.62;3.27;;;31.10;96.30;;;;;;1892068;76;21606;-81
2022/08/24 04:52:36;;;;;;;8.65;3.02;;;31.10;96.20;;;;;;1926834;74;21085;-83
2022/08/24 04:55:27;;;;;;;7.67;3.05;;;31.10;96.20;;;;;;1887381;75;21103;-83
2022/08/24 04:58:01;;;;;;;6.72;2.90;;;31.10;96.10;;;;;;1896652;75;21461;-82
2022/08/24 05:00:32;;;;;;;7.90;2.55;;;31.10;95.60;;;;;;1907450;75;21088;-82
2022/08/24 05:03:03;;;;;;;6.35;3.02;;;31.10;95.40;;;;;;1887893;75;21197;-81
2022/08/24 05:05:35;;;;;;;7.97;3.02;;;31.10;95.30;;;;;;1874114;75;21191;-82
2022/08/24 05:08:06;;;;;;;5.40;3.05;;;31.10;95.30;;;;;;1874894;76;21274;-81
2022/08/24 05:10:39;;;;;;;6.58;3.33;;;31.10;95.40;;;;;;1883604;75;21072;-81
2022/08/24 05:13:11;;;;;;;4.40;2.83;;;31.10;95.60;;;;;;1888532;76;21106;-82
2022/08/24 05:15:44;;;;;;;8.93;3.20;;;31.20;95.50;;;;;;1890510;74;21271;-82
2022/08/24 05:18:16;;;;;;;6.97;3.37;;;31.30;96.00;;;;;;1908860;74;21621;-82
2022/08/24 05:20:48;;;;;;;6.50;4.00;;;31.30;95.40;;;;;;1922744;73;21657;-81
2022/08/24 05:23:21;;;;;;;7.30;3.47;;;31.40;95.70;;;;;;1885820;74;21107;-82
2022/08/24 05:25:51;;;;;;;5.70;3.42;;;31.60;95.90;;;;;;1922896;73;21154;-81
2022/08/24 05:28:24;;;;;;;7.85;4.20;;;31.70;95.90;;;;;;1910961;74;21092;-81
2022/08/24 05:30:56;;;;;;;11.60;5.12;;;31.80;95.80;;;;;;1891360;74;21114;-82
2022/08/24 05:33:27;;;;;;;10.32;4.42;;;31.90;95.90;;;;;;1896676;74;21113;-83
2022/08/24 05:35:58;;;;;;;10.03;4.15;;;32.10;95.30;;;;;;1882303;75;21240;-81
2022/08/24 05:38:28;;;;;;;7.15;3.55;;;32.20;94.90;;;;;;1879295;75;21084;-82
2022/08/24 05:41:02;;;;;;;6.60;4.15;;;32.40;94.40;;;;;;1893548;76;21150;-81
2022/08/24 05:43:34;;;;;;;7.90;4.22;;;32.50;93.80;;;;;;1875525;76;21232;-82
2022/08/24 05:46:05;;;;;;;8.43;4.45;;;32.50;93.70;;;;;;1908863;74;21111;-82
2022/08/24 05:48:37;;;;;;;10.48;4.20;;;32.50;93.40;;;;;;1885811;76;21533;-83
2022/08/24 05:51:10;;;;;;;6.22;3.58;;;32.30;93.60;;;;;;1884116;76;21161;-83
2022/08/24 05:53:42;;;;;;;6.90;4.00;;;32.40;94.00;;;;;;1920234;74;21128;-84
2022/08/24 05:56:18;;;;;;;6.87;3.52;;;32.40;93.50;;;;;;1898687;74;21177;-84
2022/08/24 05:58:50;;;;;;;6.33;3.20;;;32.40;93.60;;;;;;1880731;75;21209;-84
2022/08/24 06:01:26;;;;;;;9.43;3.72;;;32.40;93.50;;;;;;1924593;72;21107;-84
2022/08/24 06:03:57;;;;;;;7.85;3.50;;;32.40;93.50;;;;;;1925536;72;21073;-82
2022/08/24 06:06:30;;;;;;;5.78;3.70;;;32.40;93.00;;;;;;1914844;74;21101;-83
2022/08/24 06:09:01;;;;;;;8.30;3.90;;;32.40;93.40;;;;;;1909155;75;21085;-82
2022/08/24 06:11:36;;;;;;;5.05;3.55;;;32.40;93.70;;;;;;1909859;75;21652;-82
2022/08/24 06:14:09;;;;;;;6.20;3.58;;;32.30;93.60;;;;;;1910552;75;21125;-82
2022/08/24 06:16:43;;;;;;;7.30;4.87;;;32.20;93.70;;;;;;1884959;74;21152;-82
2022/08/24 06:19:17;;;;;;;11.40;6.47;;;32.20;93.80;;;;;;1894286;76;21208;-82
2022/08/24 06:21:51;;;;;;;9.20;6.28;;;32.00;93.90;;;;;;1894606;76;21087;-85
2022/08/24 06:29:32;;;;;;;9.00;5.85;;;31.90;93.90;;;;;;1882193;76;21123;-82
2022/08/24 06:32:03;;;;;;;6.55;3.27;;;31.80;94.00;;;;;;1882023;76;21158;-82
2022/08/24 06:34:34;;;;;;;11.08;8.60;;;31.70;94.40;;;;;;1881242;76;21095;-82
2022/08/24 06:37:09;;;;;;;7.15;3.98;;;31.60;94.70;;;;;;1888182;76;21115;-81
2022/08/24 06:39:43;;;;;;;13.18;8.70;;;31.60;94.80;;;;;;1873166;76;21732;-84
2022/08/24 06:42:18;;;;;;;9.60;6.72;;;31.60;94.90;;;;;;1873873;76;21173;-84
2022/08/24 06:45:04;;;;;;;5.97;3.98;;;31.60;94.90;;;;;;1652063;81;21550;-83
2022/08/24 06:47:35;;;;;;;8.15;4.83;;;31.60;95.10;;;;;;1663177;86;21172;-83
2022/08/24 06:50:07;;;;;;;5.45;3.80;;;31.60;95.20;;;;;;1670995;86;21216;-81
2022/08/24 06:52:38;;;;;;;9.03;6.28;;;31.60;95.20;;;;;;1670841;84;21353;-82
2022/08/24 06:55:11;;;;;;;7.37;5.80;;;31.60;95.00;;;;;;1674113;84;21104;-81
2022/08/24 06:57:44;;;;;;;7.70;6.25;;;31.70;95.10;;;;;;1674342;85;21329;-80
2022/08/24 07:00:35;;;;;;;9.60;6.45;;;31.80;95.40;;;;;;1654157;86;21115;-83
2022/08/24 07:03:06;;;;;;;8.28;5.78;;;31.80;94.90;;;;;;1653457;87;21202;-82
2022/08/24 07:05:37;;;;;;;9.85;5.33;;;31.90;95.10;;;;;;1665624;84;21211;-82
2022/08/24 07:08:10;;;;;;;9.20;5.33;;;31.90;95.20;;;;;;1671012;85;21151;-82
2022/08/24 07:10:44;;;;;;;7.33;5.28;;;32.00;94.70;;;;;;1665508;86;21120;-82
2022/08/24 07:13:16;;;;;;;7.97;4.37;;;32.00;94.80;;;;;;1665418;86;21278;-83
2022/08/24 07:15:47;;;;;;;5.65;4.08;;;32.10;95.10;;;;;;1671149;84;21257;-82
2022/08/24 07:18:19;;;;;;;5.70;4.12;;;32.20;94.60;;;;;;1675192;85;21385;-82
2022/08/24 07:20:53;;;;;;;6.12;3.83;;;32.40;94.10;;;;;;1675019;85;21245;-82
2022/08/24 07:23:24;;;;;;;5.72;3.65;;;32.40;94.10;;;;;;1750032;80;22236;-83
2022/08/24 07:25:56;;;;;;;7.03;4.08;;;32.50;94.10;;;;;;1775069;79;21177;-83
2022/08/24 07:28:28;;;;;;;5.80;3.50;;;32.40;93.60;;;;;;1749147;82;21160;-83
2022/08/24 07:31:00;;;;;;;5.53;3.65;;;32.40;93.70;;;;;;1780503;80;21177;-82
2022/08/24 07:33:32;;;;;;;5.62;3.25;;;32.30;93.50;;;;;;1764593;80;21142;-81
2022/08/24 07:36:03;;;;;;;8.03;3.60;;;32.30;93.40;;;;;;1756017;80;21675;-82
2022/08/24 07:38:34;;;;;;;7.80;4.17;;;32.20;93.90;;;;;;1780397;80;21199;-82
2022/08/24 07:41:08;;;;;;;5.42;3.20;;;32.20;93.90;;;;;;1762370;79;21128;-82
2022/08/24 07:43:41;;;;;;;8.73;3.83;;;32.10;94.20;;;;;;1724105;80;21137;-81
2022/08/24 07:46:13;;;;;;;6.75;3.50;;;32.10;94.60;;;;;;1799756;78;21576;-81
2022/08/24 07:48:44;;;;;;;9.00;3.58;;;32.00;94.00;;;;;;1816885;78;21078;-81
2022/08/24 07:51:19;;;;;;;4.55;3.20;;;31.90;94.30;;;;;;1835282;78;21622;-82
2022/08/24 07:53:50;;;;;;;5.97;3.50;;;31.90;94.20;;;;;;1789450;79;21090;-82
2022/08/24 07:56:22;;;;;;;5.58;3.37;;;31.80;94.20;;;;;;1780022;79;21152;-81
2022/08/24 07:58:53;;;;;;;6.80;3.60;;;31.80;95.00;;;;;;1796359;78;21740;-82
2022/08/24 08:01:24;;;;;;;7.70;3.27;;;31.80;94.30;;;;;;1820074;78;21272;-81
2022/08/24 08:03:55;;;;;;;5.35;2.83;;;31.80;94.40;;;;;;1796808;80;21613;-83
2022/08/24 08:06:28;;;;;;;8.20;2.75;;;31.80;94.00;;;;;;1802400;78;21180;-82
2022/08/24 08:09:03;;;;;;;3.67;3.10;;;31.90;94.10;;;;;;1794051;79;21245;-82
2022/08/24 08:11:34;;;;;;;5.40;2.98;;;32.00;94.00;;;;;;1796401;80;21594;-82
2022/08/24 08:14:06;;;;;;;5.50;2.95;;;32.00;93.80;;;;;;1805546;78;21158;-81
2022/08/24 08:16:38;;;;;;;4.00;2.95;;;32.10;93.60;;;;;;1775004;79;21160;-81
2022/08/24 08:19:08;;;;;;;8.80;3.45;;;32.10;93.80;;;;;;1795397;79;21264;-82
2022/08/24 08:24:16;;;;;;;4.40;2.67;;;32.20;93.90;;;;;;1800433;78;21754;-81
2022/08/24 08:26:49;;;;;;;5.70;3.02;;;32.20;93.30;;;;;;1803399;78;21249;-81
2022/08/24 08:29:23;;;;;;;9.08;2.70;;;32.30;93.30;;;;;;1766628;81;21746;-81
2022/08/24 08:31:57;;;;;;;5.35;2.80;;;32.30;93.00;;;;;;1743307;81;21162;-82
2022/08/24 08:34:42;;;;;;;7.60;2.92;;;32.40;93.30;;;;;;1799661;78;21257;-81
2022/08/24 08:37:15;;;;;;;11.88;3.80;;;32.40;92.80;;;;;;1795117;80;21665;-80
2022/08/24 08:39:49;;;;;;;4.37;2.77;;;32.40;93.10;;;;;;1766747;80;21205;-82
2022/08/24 08:42:22;;;;;;;7.00;3.37;;;32.40;93.10;;;;;;1830958;78;21125;-81
2022/08/24 08:44:59;;;;;;;7.25;3.52;;;32.40;92.90;;;;;;1823851;78;21159;-84
2022/08/24 08:47:36;;;;;;;6.42;3.25;;;32.40;93.10;;;;;;1789169;78;21135;-83
2022/08/24 08:50:08;;;;;;;4.95;2.65;;;32.30;92.90;;;;;;1789592;80;21654;-84
2022/08/24 08:52:43;;;;;;;7.10;2.63;;;32.30;92.30;;;;;;1806353;78;21130;-83
2022/08/24 08:55:16;;;;;;;5.70;2.62;;;32.20;92.10;;;;;;1806579;78;21154;-83
2022/08/24 08:57:50;;;;;;;5.35;2.62;;;32.20;92.10;;;;;;1794745;78;21617;-83
2022/08/24 09:00:27;;;;;;;3.60;2.37;;;32.20;91.80;;;;;;1818602;78;21211;-83
2022/08/24 09:03:18;;;;;;;6.22;2.65;;;32.20;92.30;;;;;;1823732;78;21210;-83
2022/08/24 09:05:56;;;;;;;6.65;3.20;;;32.20;92.30;;;;;;1812519;79;21224;-83
2022/08/24 09:08:48;;;;;;;4.37;2.75;;;32.20;92.40;;;;;;1790676;79;21139;-83
2022/08/24 09:11:39;;;;;;;3.87;2.45;;;32.20;92.50;;;;;;1821016;79;21177;-83
2022/08/24 09:14:11;;;;;;;3.83;2.60;;;32.20;92.60;;;;;;1822350;78;21531;-83
2022/08/24 09:16:44;;;;;;;5.37;2.87;;;32.20;92.50;;;;;;1794359;78;21843;-83
2022/08/24 09:19:18;;;;;;;7.85;3.08;;;32.10;92.40;;;;;;1788403;80;21182;-83
2022/08/24 09:21:52;;;;;;;4.85;3.12;;;32.20;92.30;;;;;;1788957;78;21146;-84
2022/08/24 09:24:26;;;;;;;5.58;3.30;;;32.10;92.00;;;;;;1787243;80;21182;-82
2022/08/24 09:26:59;;;;;;;5.47;3.30;;;32.20;92.00;;;;;;1786017;78;21990;-83
2022/08/24 09:29:33;;;;;;;6.62;4.50;;;32.10;91.90;;;;;;1786681;80;21127;-83
2022/08/24 09:32:08;;;;;;;13.28;4.17;;;32.10;92.10;;;;;;1788302;80;21213;-84
2022/08/24 09:34:41;;;;;;;8.73;3.80;;;32.10;92.40;;;;;;1789992;80;21186;-84
2022/08/24 09:37:15;;;;;;;6.17;2.77;;;32.10;92.40;;;;;;1793204;80;21186;-84
2022/08/24 09:39:52;;;;;;;4.37;3.10;;;32.10;92.30;;;;;;1822877;79;21181;-83
2022/08/24 09:42:24;;;;;;;3.67;2.80;;;32.10;92.10;;;;;;1826781;77;21169;-84
2022/08/24 09:44:56;;;;;;;5.55;3.40;;;32.10;92.10;;;;;;1819539;78;21122;-83
2022/08/24 09:47:28;;;;;;;4.92;3.92;;;32.10;92.30;;;;;;1796997;78;21166;-83
2022/08/24 09:50:01;;;;;;;5.20;3.83;;;32.10;92.30;;;;;;1789265;79;21153;-82
2022/08/24 09:52:35;;;;;;;7.65;4.20;;;32.10;92.70;;;;;;1819882;78;21616;-83
2022/08/24 09:55:08;;;;;;;5.47;3.87;;;32.10;93.50;;;;;;1777168;80;21170;-84
2022/08/24 09:57:40;;;;;;;6.65;4.42;;;32.00;94.10;;;;;;1766667;80;21135;-82
2022/08/24 10:00:15;;;;;;;6.83;4.60;;;32.00;94.30;;;;;;1742910;80;21222;-84
2022/08/24 10:02:50;;;;;;;6.10;4.30;;;31.90;94.60;;;;;;1767883;80;21175;-83
2022/08/24 10:05:41;;;;;;;6.20;4.40;;;31.90;94.60;;;;;;1774924;80;21173;-83
2022/08/24 10:08:15;;;;;;;6.58;4.20;;;31.80;94.80;;;;;;1791317;80;21221;-83
2022/08/24 10:10:48;;;;;;;6.75;4.25;;;31.80;94.80;;;;;;1771574;80;21076;-83
2022/08/24 10:13:20;;;;;;;7.37;3.80;;;31.70;94.80;;;;;;1771192;80;21743;-84
2022/08/24 10:15:54;;;;;;;6.08;4.20;;;31.70;94.90;;;;;;1773426;80;21693;-83
2022/08/24 10:18:26;;;;;;;8.33;4.45;;;31.60;94.80;;;;;;1730995;82;21202;-83
2022/08/24 10:21:17;;;;;;;6.20;3.70;;;31.60;94.90;;;;;;1702538;84;21132;-83
2022/08/24 10:23:39;;;;;;;6.20;3.70;;;31.50;94.90;;;;;;1698500;83;21225;-82
2022/08/24 10:26:11;;;;;;;5.30;3.33;;;31.50;94.90;;;;;;1699185;83;21266;-82
2022/08/24 10:28:50;;;;;;;5.65;4.10;;;31.50;94.80;;;;;;1706003;83;21190;-83
2022/08/24 10:31:26;;;;;;;5.77;4.30;;;31.40;94.90;;;;;;1718863;81;21882;-83
2022/08/24 10:33:59;;;;;;;5.90;3.60;;;31.40;95.20;;;;;;1730404;81;21241;-81
2022/08/24 10:36:39;;;;;;;7.28;3.80;;;31.40;95.00;;;;;;1725673;81;21227;-82
2022/08/24 10:48:16;;;;;;;6.30;3.95;;;31.30;95.40;;;;;;1846501;74;21049;-83
2022/08/24 10:51:08;;;;;;;9.48;4.53;;;31.20;95.40;;;;;;1925175;74;21051;-84
2022/08/24 10:53:44;;;;;;;5.53;3.80;;;31.20;95.40;;;;;;1925647;73;21562;-83
2022/08/24 10:56:18;;;;;;;6.53;3.85;;;31.20;95.30;;;;;;1921650;73;21110;-83
2022/08/24 10:58:51;;;;;;;8.27;5.03;;;31.20;95.40;;;;;;1885697;75;21161;-83
2022/08/24 11:01:25;;;;;;;9.43;5.00;;;31.10;95.60;;;;;;1935090;73;21094;-84
2022/08/24 11:03:57;;;;;;;6.75;4.75;;;31.10;95.80;;;;;;1936111;73;21659;-84
2022/08/24 11:06:30;;;;;;;5.65;4.42;;;31.10;95.90;;;;;;1934709;73;21192;-84
2022/08/24 11:09:04;;;;;;;9.65;4.53;;;31.10;96.00;;;;;;1934670;73;21180;-84
2022/08/24 11:11:40;;;;;;;6.83;4.30;;;31.00;96.10;;;;;;1930903;73;21153;-84
2022/08/24 11:14:13;;;;;;;7.78;4.33;;;31.10;96.10;;;;;;1936670;73;21201;-84
2022/08/24 11:16:50;;;;;;;6.15;5.20;;;31.00;96.10;;;;;;1929814;73;21121;-84
2022/08/24 11:19:26;;;;;;;6.25;4.10;;;31.00;96.10;;;;;;1932740;72;21222;-84
2022/08/24 11:22:02;;;;;;;7.08;4.20;;;30.90;96.00;;;;;;1935109;72;21099;-83
2022/08/24 11:24:34;;;;;;;8.05;4.42;;;30.90;96.00;;;;;;1924384;73;21141;-83
2022/08/24 11:27:07;;;;;;;9.58;4.70;;;31.00;96.10;;;;;;1942699;73;21094;-84
2022/08/24 11:29:41;;;;;;;7.75;4.90;;;30.90;96.00;;;;;;1938555;72;21750;-84
2022/08/24 11:32:14;;;;;;;5.83;3.80;;;30.90;95.90;;;;;;1937176;72;21863;-83
2022/08/24 11:34:46;;;;;;;9.40;4.05;;;30.90;95.80;;;;;;1952742;71;21071;-83
2022/08/24 11:37:21;;;;;;;10.00;4.50;;;30.90;95.80;;;;;;1952263;72;21633;-83
2022/08/24 11:39:53;;;;;;;6.22;4.35;;;30.90;95.80;;;;;;1929545;72;21162;-84
2022/08/24 11:42:30;;;;;;;7.33;4.80;;;30.90;95.90;;;;;;1923670;73;21184;-84
2022/08/24 11:45:03;;;;;;;6.05;3.95;;;30.80;95.90;;;;;;1927549;73;21102;-83
2022/08/24 11:47:38;;;;;;;11.22;4.42;;;30.90;96.40;;;;;;1863141;76;21196;-83
2022/08/24 11:50:13;;;;;;;6.53;4.05;;;30.80;96.00;;;;;;1837442;76;21718;-81
2022/08/24 11:52:46;;;;;;;8.38;4.55;;;30.80;95.90;;;;;;1810686;78;21768;-83
2022/08/24 11:55:19;;;;;;;12.60;7.55;;;30.80;96.00;;;;;;1811129;78;21190;-82
2022/08/24 11:57:55;;;;;;;14.03;8.60;;;30.80;96.20;;;;;;1843284;75;21184;-83
2022/08/24 12:00:29;;;;;;;10.63;5.80;;;30.80;96.30;;;;;;1789510;79;21207;-83
2022/08/24 12:03:01;;;;;;;7.80;4.85;;;30.80;96.40;;;;;;1846598;75;21144;-82
2022/08/24 12:05:34;;;;;;;9.53;5.37;;;30.70;96.50;;;;;;1828660;77;21240;-82
2022/08/24 12:08:06;;;;;;;5.97;4.50;;;30.70;96.60;;;;;;1825302;78;21171;-82
2022/08/24 12:10:39;;;;;;;8.63;4.55;;;30.70;96.60;;;;;;1841562;78;21151;-83
2022/08/24 12:13:13;;;;;;;10.05;4.28;;;30.70;96.60;;;;;;1886556;74;21209;-83
2022/08/24 12:15:47;;;;;;;10.75;4.60;;;30.70;96.80;;;;;;1877226;75;21119;-83
2022/08/24 12:18:23;;;;;;;6.03;4.72;;;30.70;96.80;;;;;;1930634;74;21099;-83
2022/08/24 12:20:55;;;;;;;7.80;5.15;;;30.60;96.80;;;;;;1910881;74;21106;-82
2022/08/24 12:23:28;;;;;;;7.37;4.60;;;30.60;96.90;;;;;;1914324;74;21177;-82
2022/08/24 12:26:02;;;;;;;10.68;6.17;;;30.60;96.90;;;;;;1905080;74;21225;-83
2022/08/24 12:28:35;;;;;;;10.88;5.90;;;30.60;97.10;;;;;;1901028;75;21184;-83
2022/08/24 12:31:09;;;;;;;7.28;5.08;;;30.60;97.00;;;;;;1906188;74;21662;-82
2022/08/24 12:33:41;;;;;;;10.35;4.58;;;30.60;96.90;;;;;;1880856;75;22038;-83
2022/08/24 12:36:15;;;;;;;7.85;4.60;;;30.60;96.90;;;;;;1926578;74;21164;-82
2022/08/24 12:38:48;;;;;;;6.85;4.65;;;30.60;96.90;;;;;;1914051;74;21609;-84
2022/08/24 12:41:23;;;;;;;5.90;4.70;;;30.60;97.00;;;;;;1915037;74;21119;-83
2022/08/24 12:43:56;;;;;;;7.28;5.05;;;30.60;96.80;;;;;;1916163;74;21098;-82
2022/08/24 12:46:28;;;;;;;9.48;5.17;;;30.50;96.80;;;;;;1892273;75;21251;-83
2022/08/24 12:49:03;;;;;;;12.00;7.30;;;30.60;96.80;;;;;;1922985;73;21126;-82
2022/08/24 12:51:34;;;;;;;9.35;6.78;;;30.60;96.80;;;;;;1908159;74;21220;-82
2022/08/24 12:54:08;;;;;;;9.55;7.47;;;30.60;96.80;;;;;;1902578;74;21162;-82
2022/08/24 12:56:40;;;;;;;10.40;6.92;;;30.60;96.80;;;;;;1912659;73;21577;-82
2022/08/24 12:59:15;;;;;;;8.95;6.95;;;30.60;96.80;;;;;;1914082;73;21194;-82
2022/08/24 13:01:49;;;;;;;8.70;6.40;;;30.50;96.80;;;;;;1914242;74;21083;-82
2022/08/24 13:04:23;;;;;;;10.80;6.95;;;30.50;96.80;;;;;;1908327;74;21063;-83
2022/08/24 13:06:57;;;;;;;6.83;5.35;;;30.50;96.80;;;;;;1897120;74;21186;-84
2022/08/24 13:09:30;;;;;;;8.48;5.03;;;30.50;96.90;;;;;;1899458;74;21140;-83
2022/08/24 13:12:08;;;;;;;7.78;5.50;;;30.50;96.90;;;;;;1913848;74;21123;-83
2022/08/24 13:14:44;;;;;;;7.65;5.03;;;30.50;96.90;;;;;;1905725;73;21190;-83
2022/08/24 13:17:22;;;;;;;8.40;5.28;;;30.50;96.90;;;;;;1903226;74;21516;-86
2022/08/24 13:20:12;;;;;;;8.60;5.12;;;30.50;97.00;;;;;;1897162;74;21372;-83
2022/08/24 13:22:35;;;;;;;6.80;5.10;;;30.50;97.00;;;;;;1902381;73;21087;-84
2022/08/24 13:25:06;;;;;;;8.33;5.30;;;30.50;97.00;;;;;;1903660;74;21195;-84
2022/08/24 13:27:48;;;;;;;11.73;5.42;;;30.40;97.10;;;;;;1894887;74;21489;-84
2022/08/24 13:30:22;;;;;;;7.45;5.58;;;30.40;97.10;;;;;;1917202;73;21178;-82
2022/08/24 13:33:01;;;;;;;9.93;6.47;;;30.40;97.70;;;;;;1911639;72;21215;-84
2022/08/24 13:35:39;;;;;;;10.00;6.53;;;30.40;97.30;;;;;;1906820;74;21208;-83